Terminal Aerodrome Forecast
Issued by NWS Milwaukee/Sullivan, WI

Home | Current Version | Previous Version | Text Only | Print | Product List | Glossary On
Versions: 1 2 3 4 5 6 7 8 9 10 11 12 13 14 15 16 17 18 19 20 21
000
FTUS43 KMKX 251729
TAFMSN
TAF
KMSN 251729Z 2518/2618 01008G16KT P6SM SKC
     FM260000 02006KT P6SM SKC
     FM260200 VRB03KT P6SM SKC
     FM261300 22005KT P6SM SCT250
     FM261500 24008KT P6SM SCT250=

USA.gov is the U.S. government's official web portal to all federal, state and local government web resources and services.